Terminal Aerodrome Forecast
Issued by NWS Portland, OR

Home | Current Version | Previous Version | Text Only | Print | Product List | Glossary On
Versions: 1 2 3 4 5 6 7 8 9 10 11 12 13 14 15 16 17 18 19
000
FTUS46 KPQR 232325
TAFTTD
TAF
KTTD 232325Z 2400/2424 VRB03KT P6SM SKC
     FM240600 09013G20KT P6SM SKC
     FM241000 09017G23KT P6SM SKC
     FM241800 09020G26KT P6SM SKC=

USA.gov is the U.S. government's official web portal to all federal, state and local government web resources and services.